< Typhoon 201210 2012 Season Typhoon 201212 >
Typhoon 201211 (HAIKUI)
General InformationTrack Information on Google MapsDetailed Wind InformationAccess Analytics MapList of All Images || NewsDisaster Info.WeblogTrackbackTyphoon FrontTwiphoonTyphoon Now!Typhoon ImaginationResourceGoogle EarthGE AnimationAtom FeedGeoJSON
Detalied Best Track (Time Zone = UTC)
Year Month Day Hour Lat. Long. Pressure (hPa) Wind (kt) Class Image Chart
2012 8 1 12 22.4 146.5 1004 0 2 Image Chart
2012 8 1 18 22.4 146.0 1002 0 2 Image Chart
2012 8 2 00 22.4 145.4 1002 0 2 Image Chart
2012 8 2 06 22.4 144.0 1000 0 2 Image Chart
2012 8 2 12 22.4 143.2 996 0 2 Image Chart
2012 8 2 18 22.6 141.9 994 0 2 Image Chart
2012 8 3 00 22.9 141.3 992 35 3 Image Chart
2012 8 3 06 23.4 140.0 992 35 3 Image Chart
2012 8 3 12 24.4 138.0 992 35 3 Image Chart
2012 8 3 18 24.9 136.6 992 35 3 Image Chart
2012 8 4 00 24.8 134.3 990 35 3 Image Chart
2012 8 4 06 25.3 133.0 985 40 3 Image Chart
2012 8 4 09 26.0 132.1 985 40 3 Image Chart
2012 8 4 12 26.2 131.3 985 40 3 Image Chart
2012 8 4 15 26.3 130.7 985 40 3 Image Chart
2012 8 4 18 26.3 130.2 985 40 3 Image Chart
2012 8 4 21 26.6 129.8 985 45 3 Image Chart
2012 8 5 00 26.7 129.1 980 45 3 Image Chart
2012 8 5 03 26.9 128.8 980 45 3 Image Chart
2012 8 5 06 27.3 128.5 980 45 3 Image Chart
2012 8 5 09 27.5 127.9 980 45 3 Image Chart
2012 8 5 12 27.4 127.2 975 50 4 Image Chart
2012 8 5 15 27.1 126.9 975 50 4 Image Chart
2012 8 5 18 27.1 126.6 970 55 4 Image Chart
2012 8 5 21 27.0 126.2 970 55 4 Image Chart
2012 8 6 00 27.1 126.1 970 55 4 Image Chart
2012 8 6 03 27.2 125.8 970 55 4 Image Chart
2012 8 6 06 27.4 125.5 965 60 4 Image Chart
2012 8 6 09 27.4 125.2 965 60 4 Image Chart
2012 8 6 12 27.1 124.9 965 60 4 Image Chart
2012 8 6 18 26.9 124.6 965 60 4 Image Chart
2012 8 7 00 27.3 124.1 965 60 4 Image Chart
2012 8 7 06 27.7 123.5 965 60 4 Image Chart
2012 8 7 12 28.2 122.8 965 65 5 Image Chart
2012 8 7 18 28.8 122.3 965 65 5 Image Chart
2012 8 8 00 29.4 121.2 975 55 4 Image Chart
2012 8 8 06 30.1 120.3 980 45 3 Image Chart
2012 8 8 12 30.2 119.4 990 40 3 Image Chart
2012 8 8 18 30.5 118.6 990 35 3 Image Chart
2012 8 9 00 30.6 117.9 992 35 3 Image Chart
2012 8 9 06 30.8 117.6 992 35 3 Image Chart
2012 8 9 12 30.8 117.3 994 0 2 Image Chart
2012 8 9 18 30.7 117.0 994 0 2 Image Chart
2012 8 10 00 30.7 117.0 996 0 2 Image Chart
2012 8 10 06 30.2 116.9 996 0 2 Image Chart
2012 8 10 12 30.0 116.9 996 0 2 Image Chart
2012 8 10 18 29.9 117.1 998 0 2 Image Chart
2012 8 11 00 30.0 117.3 1000 0 2 Image Chart
2012 8 11 06 30.0 117.3 1000 0 2 Image Chart
Japan Meteorological Agency Best Track Data | Correction Date : 2012-09-26
< Typhoon 201210 2012 Season Typhoon 201212 >

Help